Terminal Aerodrome Forecast
Issued by NWS

Home | Current Version | Previous Version | Text Only | Print | Product List | Glossary On
Versions: 1 2 3 4 5 6 7 8 9 10 11 12 13 14 15 16 17 18
000
FTUS45 KGJT 211740
TAFTEX
TAF
KTEX 211740Z 2118/2218 24006KT P6SM VCTS BKN070CB OVC100
      TEMPO 2120/2124 -TSRA BKN050CB OVC070
     FM220000 12006KT P6SM VCTS BKN070CB OVC100
     FM220600 VRB04KT P6SM SCT070 BKN100=

USA.gov is the U.S. government's official web portal to all federal, state and local government web resources and services.